createdAt,value
2019-05-25T00:00:40.446Z,0
2019-05-25T00:01:40.410Z,0
2019-05-25T00:02:40.044Z,0
2019-05-25T00:03:40.402Z,0
2019-05-25T00:04:40.466Z,0
2019-05-25T00:05:40.382Z,0
2019-05-25T00:06:40.421Z,0
2019-05-25T00:07:40.130Z,0
2019-05-25T00:08:40.475Z,0
2019-05-25T00:09:43.515Z,0
2019-05-25T00:10:40.121Z,0
2019-05-25T00:11:40.362Z,0
2019-05-25T00:12:40.102Z,0
2019-05-25T00:13:40.352Z,0
2019-05-25T00:14:40.334Z,0
2019-05-25T00:15:40.333Z,0
2019-05-25T00:16:40.315Z,0
2019-05-25T00:17:40.751Z,0
2019-05-25T00:18:40.329Z,0
2019-05-25T00:19:40.294Z,0
2019-05-25T00:20:40.291Z,0
2019-05-25T00:21:40.297Z,0
2019-05-25T00:22:40.280Z,0
2019-05-25T00:23:40.276Z,0
2019-05-25T00:25:40.018Z,0
2019-05-25T00:28:41.526Z,0
2019-05-25T00:29:40.236Z,0
2019-05-25T00:30:40.225Z,0
2019-05-25T00:33:39.975Z,0
2019-05-25T00:34:40.196Z,0
2019-05-25T00:35:40.214Z,0
2019-05-25T00:36:41.199Z,0
2019-05-25T00:37:40.272Z,0
2019-05-25T00:38:40.172Z,0
2019-05-25T00:39:40.165Z,0
2019-05-25T00:40:42.464Z,0
2019-05-25T00:41:40.162Z,0
2019-05-25T00:42:40.144Z,0
2019-05-25T00:43:39.960Z,0
2019-05-25T00:44:40.133Z,0
2019-05-25T00:45:40.127Z,0
2019-05-25T00:46:40.126Z,0
2019-05-25T00:47:43.026Z,0
2019-05-25T05:26:37.622Z,32704
2019-05-25T05:27:37.617Z,29920
2019-05-25T05:28:37.625Z,30528
2019-05-25T05:29:37.405Z,32288
2019-05-25T05:30:37.626Z,30176
2019-05-25T05:31:37.613Z,30976
2019-05-25T05:32:37.613Z,31072
2019-05-25T05:33:37.618Z,36032
2019-05-25T05:34:37.636Z,35264
2019-05-25T05:35:41.245Z,32032
2019-05-25T05:36:37.623Z,33440
2019-05-25T05:37:37.658Z,35904
2019-05-25T05:38:37.627Z,36608
2019-05-25T05:39:37.646Z,36704
2019-05-25T05:40:37.640Z,37824
2019-05-25T05:41:38.338Z,37856
2019-05-25T05:42:37.647Z,36256
2019-05-25T05:43:37.664Z,36992
2019-05-25T05:44:37.465Z,39904
2019-05-25T05:45:37.669Z,40256
2019-05-25T05:46:37.700Z,35584
2019-05-25T05:47:37.436Z,34528
2019-05-25T05:48:37.848Z,39616
2019-05-25T05:49:37.708Z,41984
2019-05-25T05:50:37.707Z,37984
2019-05-25T05:51:37.712Z,34656
2019-05-25T05:52:37.714Z,23456
2019-05-25T05:53:37.726Z,46496
2019-05-25T05:54:37.742Z,47936
2019-05-25T05:55:37.738Z,43136
2019-05-25T05:56:37.754Z,39392
2019-05-25T05:57:37.511Z,42304
2019-05-25T05:58:37.784Z,47488
2019-05-25T05:59:37.781Z,49568
2019-05-25T06:00:37.823Z,45920
2019-05-25T06:01:37.848Z,43136
2019-05-25T06:02:37.562Z,42080
2019-05-25T06:03:37.809Z,42720
2019-05-25T06:04:37.819Z,43968
2019-05-25T06:05:37.842Z,47744
2019-05-25T06:06:37.839Z,49472
2019-05-25T06:07:37.854Z,47168
2019-05-25T06:08:37.863Z,41952
2019-05-25T06:09:37.869Z,39776
2019-05-25T06:10:37.647Z,44640
2019-05-25T06:11:37.942Z,49088
2019-05-25T06:12:37.659Z,45632
2019-05-25T06:13:37.943Z,40032
2019-05-25T06:14:37.939Z,40160
2019-05-25T06:15:37.926Z,43008
2019-05-25T06:16:37.964Z,45728
2019-05-25T06:17:38.067Z,44288
2019-05-25T06:18:37.970Z,40448
2019-05-25T06:20:37.989Z,41536
2019-05-25T06:21:37.994Z,40704
2019-05-25T06:22:38.026Z,14176
2019-05-25T06:23:50.759Z,22784
2019-05-25T06:24:38.033Z,40320
2019-05-25T06:25:38.069Z,41952
2019-05-25T06:26:38.055Z,38496
2019-05-25T06:27:37.838Z,39360
2019-05-25T06:28:38.082Z,43392
2019-05-25T06:29:38.090Z,45920
2019-05-25T06:30:38.141Z,52288
2019-05-25T06:31:38.112Z,33376
2019-05-25T06:32:38.292Z,62688
2019-05-25T06:33:38.128Z,62368
2019-05-25T06:34:38.152Z,57504
2019-05-25T06:35:38.161Z,53632
2019-05-25T06:36:38.168Z,56800
2019-05-25T06:37:38.187Z,64576
2019-05-25T06:38:38.201Z,70656
2019-05-25T06:39:38.310Z,73152
2019-05-25T06:40:38.225Z,78208
2019-05-25T06:41:38.240Z,84000
2019-05-25T06:42:37.999Z,75648
2019-05-25T06:43:38.252Z,81824
2019-05-25T06:44:38.336Z,72608
2019-05-25T06:45:38.276Z,77312
2019-05-25T06:46:41.981Z,78752
2019-05-25T06:47:42.126Z,79712
2019-05-25T06:51:39.371Z,16384
2019-05-25T06:52:37.881Z,17440
2019-05-25T06:53:38.388Z,87872
2019-05-25T06:54:38.402Z,52960
2019-05-25T06:55:38.404Z,88480
2019-05-25T06:56:38.415Z,88096
2019-05-25T06:57:49.300Z,89600
2019-05-25T06:58:38.435Z,20160
2019-05-25T06:59:38.461Z,49152
2019-05-25T07:00:38.218Z,83936
2019-05-25T07:02:38.242Z,94208
2019-05-25T07:03:38.553Z,101600
2019-05-25T07:04:38.269Z,104512
2019-05-25T07:05:38.525Z,102624
2019-05-25T07:06:38.530Z,96160
2019-05-25T07:07:38.344Z,91424
2019-05-25T07:08:41.243Z,73984
2019-05-25T07:09:38.577Z,32832
2019-05-25T07:10:38.580Z,88096
2019-05-25T07:11:38.600Z,58080
2019-05-25T07:12:38.358Z,28448
2019-05-25T07:13:38.621Z,26048
2019-05-25T07:14:38.637Z,59168
2019-05-25T07:15:38.643Z,52704
2019-05-25T07:16:38.652Z,25376
2019-05-25T07:17:38.173Z,25088
2019-05-25T07:18:42.210Z,24512
2019-05-25T07:19:38.694Z,20576
2019-05-25T07:20:38.711Z,76480
2019-05-25T07:21:38.720Z,71968
2019-05-25T07:22:38.481Z,75648
2019-05-25T07:23:38.733Z,32544
2019-05-25T07:24:38.795Z,28736
2019-05-25T07:25:38.524Z,71200
2019-05-25T07:26:38.763Z,76832
2019-05-25T07:27:38.782Z,34400
2019-05-25T07:28:38.786Z,33184
2019-05-25T07:29:38.566Z,32512
2019-05-25T07:30:38.817Z,36608
2019-05-25T07:31:38.822Z,25632
2019-05-25T07:32:38.111Z,23840
2019-05-25T07:33:38.846Z,22624
2019-05-25T07:34:38.608Z,20864
2019-05-25T07:35:38.621Z,20064
2019-05-25T07:36:38.876Z,17792
2019-05-25T07:37:38.394Z,18368
2019-05-25T07:38:38.896Z,21824
2019-05-25T07:39:38.971Z,23808
2019-05-25T07:40:38.921Z,74720
2019-05-25T07:41:38.944Z,26624
2019-05-25T07:42:38.189Z,70016
2019-05-25T07:43:38.950Z,35456
2019-05-25T07:44:39.006Z,61792
2019-05-25T07:45:38.957Z,30144
2019-05-25T07:46:38.957Z,69248
2019-05-25T07:47:38.538Z,26240
2019-05-25T07:48:38.973Z,23520
2019-05-25T07:49:38.975Z,25440
2019-05-25T07:50:38.983Z,26944
2019-05-25T07:51:39.049Z,24384
2019-05-25T07:52:38.507Z,22944
2019-05-25T07:53:39.005Z,24384
2019-05-25T07:54:39.013Z,23808
2019-05-25T07:55:39.018Z,33024
2019-05-25T07:56:39.026Z,23072
2019-05-25T07:57:39.036Z,21344
2019-05-25T07:58:39.033Z,22784
2019-05-25T07:59:39.072Z,25728
2019-05-25T08:00:39.049Z,79040
2019-05-25T08:01:39.084Z,25280
2019-05-25T08:02:38.572Z,41792
2019-05-25T08:03:42.360Z,20512
2019-05-25T08:04:39.084Z,21792
2019-05-25T08:05:39.077Z,26976
2019-05-25T08:06:39.090Z,42016
2019-05-25T08:07:38.599Z,34976
2019-05-25T08:08:39.093Z,72768
2019-05-25T08:09:39.101Z,31872
2019-05-25T08:10:39.110Z,30144
2019-05-25T08:11:39.109Z,30208
2019-05-25T08:12:38.868Z,28800
2019-05-25T08:13:39.118Z,28960
2019-05-25T08:14:39.123Z,28256
2019-05-25T08:15:39.127Z,26528
2019-05-25T08:16:39.140Z,24640
2019-05-25T08:17:38.663Z,24864
2019-05-25T08:18:39.163Z,25056
2019-05-25T08:19:39.181Z,22112
2019-05-25T08:20:39.155Z,21376
2019-05-25T08:21:39.154Z,23808
2019-05-25T08:22:38.963Z,21824
2019-05-25T08:23:39.172Z,24448
2019-05-25T08:24:39.178Z,26176
2019-05-25T08:25:39.175Z,32256
2019-05-25T08:26:39.187Z,102208
2019-05-25T08:27:39.188Z,29984
2019-05-25T08:28:40.213Z,30432
2019-05-25T08:29:39.189Z,47168
2019-05-25T08:30:39.262Z,47200
2019-05-25T08:31:39.201Z,35680
2019-05-25T08:32:38.718Z,31328
2019-05-25T08:33:39.210Z,28032
2019-05-25T08:34:39.221Z,26208
2019-05-25T08:35:39.236Z,26272
2019-05-25T08:36:39.293Z,26944
2019-05-25T08:37:38.988Z,26304
2019-05-25T08:38:39.231Z,29312
2019-05-25T08:39:39.233Z,28416
2019-05-25T08:40:39.244Z,33888
2019-05-25T08:41:39.313Z,19808
2019-05-25T08:42:39.003Z,18912
2019-05-25T08:43:39.257Z,21376
2019-05-25T08:44:39.016Z,24000
2019-05-25T08:45:39.289Z,26720
2019-05-25T08:46:39.267Z,24576
2019-05-25T08:47:39.273Z,26944
2019-05-25T08:48:39.292Z,29504
2019-05-25T08:49:39.279Z,23424
2019-05-25T08:50:45.720Z,22432
2019-05-25T08:51:39.320Z,21600
2019-05-25T08:52:39.311Z,21312
2019-05-25T08:53:51.475Z,20128
2019-05-25T08:54:39.320Z,19808
2019-05-25T08:55:39.308Z,19392
2019-05-25T08:56:39.308Z,18016
2019-05-25T08:57:39.315Z,16928
2019-05-25T08:58:57.888Z,15936
2019-05-25T08:59:39.306Z,15840
2019-05-25T09:00:39.327Z,17120
2019-05-25T09:01:39.325Z,18912
2019-05-25T09:02:40.347Z,21696
2019-05-25T09:03:39.350Z,20384
2019-05-25T09:04:41.905Z,23456
2019-05-25T09:05:39.324Z,23264
2019-05-25T09:06:39.365Z,24864
2019-05-25T09:07:46.577Z,23680
2019-05-25T09:08:39.331Z,22080
2019-05-25T09:09:39.342Z,20864
2019-05-25T09:10:39.342Z,19264
2019-05-25T09:11:39.336Z,17952
2019-05-25T09:12:39.330Z,17408
2019-05-25T09:13:39.347Z,17632
2019-05-25T09:14:39.358Z,17760
2019-05-25T09:15:39.343Z,18176
2019-05-25T09:16:39.339Z,18464
2019-05-25T09:17:39.363Z,16864
2019-05-25T09:18:39.342Z,15808
2019-05-25T09:19:39.343Z,15936
2019-05-25T09:20:39.386Z,16128
2019-05-25T09:21:39.351Z,15244
2019-05-25T09:22:39.345Z,14320
2019-05-25T09:23:39.363Z,13500
2019-05-25T09:24:39.353Z,13768
2019-05-25T09:25:39.126Z,15464
2019-05-25T09:26:39.368Z,16736
2019-05-25T09:27:39.358Z,17376
2019-05-25T09:28:39.354Z,15776
2019-05-25T09:29:39.110Z,14572
2019-05-25T09:30:39.358Z,15316
2019-05-25T09:31:39.355Z,16768
2019-05-25T09:32:38.643Z,17536
2019-05-25T09:33:39.357Z,17280
2019-05-25T09:34:39.402Z,17056
2019-05-25T09:35:39.352Z,16864
2019-05-25T09:36:39.354Z,17888
2019-05-25T09:37:39.361Z,18400
2019-05-25T09:38:42.601Z,19392
2019-05-25T09:39:39.369Z,20224
2019-05-25T09:40:39.359Z,19744
2019-05-25T09:41:39.182Z,18944
2019-05-25T09:42:39.766Z,18912
2019-05-25T09:43:41.153Z,19296
2019-05-25T09:44:39.367Z,18560
2019-05-25T09:45:39.355Z,18368
2019-05-25T09:46:39.369Z,17888
2019-05-25T09:47:39.110Z,17024
2019-05-25T09:48:42.903Z,16512
2019-05-25T09:49:39.357Z,16832
2019-05-25T09:50:39.360Z,16928
2019-05-25T09:51:39.356Z,17312
2019-05-25T09:52:39.123Z,17344
2019-05-25T09:53:39.365Z,17472
2019-05-25T09:54:39.354Z,16864
2019-05-25T09:55:39.360Z,15268
2019-05-25T09:56:39.354Z,14236
2019-05-25T09:57:41.513Z,13036
2019-05-25T09:58:39.355Z,12968
2019-05-25T09:59:39.361Z,12716
2019-05-25T10:00:42.804Z,12308
2019-05-25T10:01:39.354Z,12628
2019-05-25T10:02:39.513Z,14100
2019-05-25T10:03:39.425Z,16864
2019-05-25T10:04:39.372Z,17088
2019-05-25T10:05:39.362Z,17472
2019-05-25T10:06:39.356Z,18496
2019-05-25T10:07:38.922Z,21184
2019-05-25T10:08:39.351Z,23904
2019-05-25T10:09:42.491Z,26688
2019-05-25T10:10:39.369Z,29792
2019-05-25T10:11:39.369Z,30720
2019-05-25T10:12:39.354Z,31360
2019-05-25T10:13:39.354Z,32160
2019-05-25T10:14:39.350Z,30848
2019-05-25T10:15:39.356Z,29184
2019-05-25T10:16:39.353Z,27488
2019-05-25T10:17:39.413Z,24608
2019-05-25T10:18:39.357Z,23328
2019-05-25T10:19:39.379Z,23936
2019-05-25T10:20:39.353Z,25632
2019-05-25T10:21:39.370Z,26496
2019-05-25T10:22:39.413Z,24864
2019-05-25T10:23:39.356Z,23936
2019-05-25T10:24:39.371Z,24352
2019-05-25T10:25:39.380Z,24864
2019-05-25T10:26:39.358Z,25056
2019-05-25T10:27:41.453Z,24640
2019-05-25T10:28:39.368Z,23456
2019-05-25T10:29:44.339Z,22592
2019-05-25T10:30:39.361Z,21728
2019-05-25T10:31:39.150Z,20448
2019-05-25T10:32:39.147Z,18720
2019-05-25T10:33:39.921Z,18240
2019-05-25T10:34:39.375Z,19872
2019-05-25T10:35:39.372Z,23520
2019-05-25T10:36:39.134Z,27552
2019-05-25T10:37:39.145Z,28864
2019-05-25T10:38:39.377Z,26560
2019-05-25T10:39:39.386Z,25024
2019-05-25T10:40:39.380Z,26656
2019-05-25T10:41:39.386Z,29440
2019-05-25T10:42:39.379Z,31776
2019-05-25T10:43:39.378Z,32608
2019-05-25T10:44:39.414Z,31776
2019-05-25T10:45:39.407Z,31200
2019-05-25T10:46:39.491Z,32000
2019-05-25T10:47:39.388Z,32192
2019-05-25T10:48:39.409Z,31680
2019-05-25T10:49:39.432Z,30752
2019-05-25T10:50:39.153Z,30560
2019-05-25T10:51:39.455Z,31200
2019-05-25T10:52:39.163Z,30208
2019-05-25T10:53:39.406Z,28256
2019-05-25T10:54:39.413Z,27712
2019-05-25T10:55:39.407Z,27680
2019-05-25T10:56:39.418Z,27040
2019-05-25T10:57:39.450Z,26016
2019-05-25T10:58:39.416Z,26080
2019-05-25T10:59:54.891Z,26432
2019-05-25T11:00:39.191Z,25952
2019-05-25T11:01:39.456Z,25472
2019-05-25T11:02:39.430Z,26080
2019-05-25T11:03:39.428Z,25888
2019-05-25T11:04:39.438Z,26560
2019-05-25T11:05:39.454Z,25984
2019-05-25T11:06:41.992Z,24512
2019-05-25T11:07:39.445Z,24160
2019-05-25T11:08:39.528Z,23648
2019-05-25T11:09:39.453Z,23488
2019-05-25T11:10:39.447Z,24768
2019-05-25T11:11:39.450Z,26944
2019-05-25T11:12:39.239Z,27904
2019-05-25T11:13:39.462Z,28352
2019-05-25T11:14:39.486Z,27296
2019-05-25T11:15:39.460Z,25472
2019-05-25T11:16:39.239Z,24512
2019-05-25T11:17:39.508Z,25312
2019-05-25T11:18:39.488Z,27648
2019-05-25T11:19:39.475Z,28576
2019-05-25T11:20:39.470Z,28576
2019-05-25T11:21:39.504Z,28512
2019-05-25T11:22:39.481Z,27840
2019-05-25T11:23:39.258Z,26624
2019-05-25T11:24:39.487Z,24800
2019-05-25T11:25:39.494Z,24416
2019-05-25T11:26:39.540Z,23936
2019-05-25T11:27:39.250Z,23712
2019-05-25T11:28:39.514Z,23488
2019-05-25T11:29:39.540Z,23168
2019-05-25T11:30:39.508Z,23104
2019-05-25T11:31:39.779Z,22880
2019-05-25T11:32:39.507Z,22752
2019-05-25T11:33:41.466Z,21312
2019-05-25T11:34:39.512Z,21472
2019-05-25T11:35:39.546Z,21696
2019-05-25T11:36:39.519Z,21952
2019-05-25T11:37:39.279Z,21472
2019-05-25T11:38:39.531Z,20544
2019-05-25T11:39:39.286Z,19264
2019-05-25T11:40:39.541Z,19168
2019-05-25T11:41:39.546Z,20832
2019-05-25T11:42:39.541Z,23040
2019-05-25T11:43:39.544Z,24288
2019-05-25T11:44:39.544Z,24160
2019-05-25T11:45:39.544Z,24128
2019-05-25T11:46:39.564Z,24000
2019-05-25T11:47:39.697Z,24864
2019-05-25T11:48:39.304Z,24128
2019-05-25T11:49:39.546Z,23712
2019-05-25T11:50:39.561Z,24480
2019-05-25T11:51:39.552Z,24992
2019-05-25T11:52:39.464Z,25312
2019-05-25T11:53:39.555Z,24096
2019-05-25T11:54:39.564Z,21664
2019-05-25T11:55:39.570Z,21024
2019-05-25T11:56:39.564Z,21248
2019-05-25T11:57:39.325Z,21184
2019-05-25T11:58:54.018Z,20992
2019-05-25T11:59:39.328Z,21344
2019-05-25T12:00:39.572Z,22016
2019-05-25T12:01:39.334Z,22976
2019-05-25T12:02:39.579Z,24160
2019-05-25T12:03:39.582Z,22976
2019-05-25T12:04:39.350Z,22144
2019-05-25T12:05:39.586Z,24256
2019-05-25T12:06:39.579Z,25088
2019-05-25T12:07:39.348Z,25632
2019-05-25T12:08:39.590Z,25536
2019-05-25T12:09:39.636Z,24896
2019-05-25T12:10:39.602Z,22976
2019-05-25T12:11:39.605Z,21376
2019-05-25T12:12:39.605Z,20416
2019-05-25T12:13:39.356Z,20768
2019-05-25T12:14:39.678Z,20384
2019-05-25T12:15:39.615Z,20672
2019-05-25T12:16:39.610Z,21280
2019-05-25T12:17:39.371Z,21344
2019-05-25T12:18:39.667Z,20896
2019-05-25T12:19:39.617Z,20672
2019-05-25T12:20:39.635Z,20224
2019-05-25T12:21:39.629Z,20576
2019-05-25T12:22:39.631Z,19680
2019-05-25T12:23:39.632Z,18816
2019-05-25T12:24:39.631Z,18016
2019-05-25T12:25:39.632Z,17120
2019-05-25T12:26:39.634Z,15808
2019-05-25T12:27:39.713Z,14796
2019-05-25T12:28:39.638Z,14760
2019-05-25T12:29:39.644Z,15312
2019-05-25T12:30:48.228Z,17056
2019-05-25T12:31:39.642Z,18432
2019-05-25T12:32:39.642Z,19872
2019-05-25T12:33:39.661Z,20704
2019-05-25T12:34:39.652Z,20576
2019-05-25T12:35:39.646Z,20128
2019-05-25T12:36:39.654Z,19648
2019-05-25T12:37:39.672Z,18912
2019-05-25T12:38:39.651Z,18272
2019-05-25T12:39:39.656Z,18304
2019-05-25T12:40:55.079Z,19008
2019-05-25T12:41:39.408Z,19104
2019-05-25T12:42:39.655Z,19104
2019-05-25T12:43:39.652Z,19552
2019-05-25T12:44:41.983Z,20320
2019-05-25T12:45:42.060Z,20864
2019-05-25T12:46:39.672Z,21024
2019-05-25T12:47:39.666Z,21120
2019-05-25T12:48:39.669Z,21504
2019-05-25T12:49:57.165Z,23616
2019-05-25T12:50:39.661Z,24160
2019-05-25T12:51:39.677Z,23232
2019-05-25T12:52:39.668Z,21120
2019-05-25T12:53:39.671Z,20192
2019-05-25T12:54:39.666Z,19712
2019-05-25T12:55:39.673Z,19648
2019-05-25T12:56:39.682Z,20800
2019-05-25T12:57:39.680Z,21760
2019-05-25T12:58:39.670Z,22208
2019-05-25T12:59:39.677Z,22368
2019-05-25T13:00:53.372Z,22624
2019-05-25T13:01:39.674Z,23168
2019-05-25T13:02:39.686Z,23456
2019-05-25T13:03:39.674Z,22816
2019-05-25T13:04:39.678Z,21440
2019-05-25T13:05:41.641Z,19456
2019-05-25T13:06:39.689Z,18976
2019-05-25T13:07:39.200Z,18976
2019-05-25T13:08:39.691Z,18688
2019-05-25T13:09:39.685Z,18272
2019-05-25T13:10:39.681Z,17888
2019-05-25T13:11:39.708Z,17504
2019-05-25T13:12:39.690Z,17472
2019-05-25T13:13:39.683Z,17344
2019-05-25T13:14:39.695Z,17888
2019-05-25T13:15:39.708Z,17984
2019-05-25T13:16:39.691Z,17760
2019-05-25T13:17:39.690Z,17472
2019-05-25T13:18:39.693Z,18208
2019-05-25T13:19:39.691Z,18656
2019-05-25T13:20:39.695Z,18144
2019-05-25T13:21:39.689Z,17728
2019-05-25T13:22:39.699Z,17536
2019-05-25T13:23:39.452Z,17728
2019-05-25T13:24:39.709Z,17568
2019-05-25T13:25:39.696Z,17792
2019-05-25T13:26:39.715Z,18240
2019-05-25T13:27:39.697Z,18304
2019-05-25T13:28:39.703Z,17664
2019-05-25T13:29:39.710Z,16960
2019-05-25T13:30:39.703Z,16672
2019-05-25T13:31:39.703Z,17120
2019-05-25T13:32:39.219Z,18176
2019-05-25T13:33:39.706Z,18624
2019-05-25T13:34:39.471Z,18688
2019-05-25T13:35:39.704Z,18464
2019-05-25T13:36:39.734Z,17472
2019-05-25T13:37:39.457Z,17824
2019-05-25T13:38:39.702Z,17888
2019-05-25T13:39:39.720Z,17504
2019-05-25T13:40:39.706Z,16992
2019-05-25T13:41:39.706Z,16384
2019-05-25T13:42:39.466Z,17504
2019-05-25T13:43:39.704Z,18080
2019-05-25T13:44:39.707Z,17600
2019-05-25T13:45:39.708Z,18112
2019-05-25T13:46:39.713Z,18528
2019-05-25T13:47:39.470Z,18592
2019-05-25T13:48:39.714Z,17856
2019-05-25T13:49:39.711Z,17376
2019-05-25T13:50:39.473Z,17344
2019-05-25T13:51:39.721Z,17408
2019-05-25T13:52:39.479Z,17504
2019-05-25T13:53:40.264Z,16960
2019-05-25T13:54:39.723Z,15676
2019-05-25T13:55:39.715Z,14304
2019-05-25T13:56:39.718Z,13192
2019-05-25T13:57:39.728Z,12868
2019-05-25T13:58:41.632Z,12420
2019-05-25T13:59:39.725Z,12072
2019-05-25T14:00:39.735Z,12232
2019-05-25T14:01:39.724Z,12656
2019-05-25T14:02:39.728Z,12648
2019-05-25T14:03:39.509Z,12344
2019-05-25T14:04:39.723Z,12080
2019-05-25T14:05:39.732Z,12364
2019-05-25T14:06:39.742Z,12720
2019-05-25T14:07:39.718Z,13324
2019-05-25T14:08:39.735Z,13972
2019-05-25T14:09:39.717Z,14456
2019-05-25T14:10:39.720Z,13884
2019-05-25T14:11:39.744Z,13632
2019-05-25T14:12:39.723Z,13732
2019-05-25T14:13:39.724Z,13896
2019-05-25T14:14:39.731Z,15116
2019-05-25T14:15:39.718Z,16480
2019-05-25T14:16:39.718Z,16800
2019-05-25T14:17:39.782Z,16704
2019-05-25T14:18:39.725Z,16160
2019-05-25T14:19:43.721Z,16416
2019-05-25T14:20:39.736Z,16192
2019-05-25T14:21:39.723Z,15232
2019-05-25T14:22:39.721Z,14276
2019-05-25T14:23:39.720Z,14016
2019-05-25T14:24:39.725Z,13920
2019-05-25T14:25:39.718Z,14320
2019-05-25T14:26:39.724Z,14568
2019-05-25T14:27:39.727Z,15180
2019-05-25T14:28:39.717Z,16064
2019-05-25T14:29:39.719Z,16832
2019-05-25T14:30:39.719Z,16768
2019-05-25T14:31:52.698Z,16032
2019-05-25T14:32:39.233Z,16224
2019-05-25T14:33:39.728Z,16256
2019-05-25T14:34:39.717Z,16384
2019-05-25T14:35:39.716Z,16096
2019-05-25T14:36:39.726Z,15548
2019-05-25T14:37:39.728Z,14552
2019-05-25T14:38:39.723Z,14208
2019-05-25T14:39:39.716Z,13808
2019-05-25T14:40:39.709Z,13672
2019-05-25T14:41:39.774Z,14320
2019-05-25T14:42:39.720Z,14356
2019-05-25T14:43:39.744Z,14088
2019-05-25T14:44:39.721Z,14652
2019-05-25T14:45:39.711Z,15220
2019-05-25T14:46:39.719Z,14932
2019-05-25T14:47:39.716Z,14132
2019-05-25T14:48:39.711Z,12556
2019-05-25T14:49:39.806Z,11348
2019-05-25T14:50:39.710Z,10464
2019-05-25T14:51:39.717Z,10024
2019-05-25T14:52:42.948Z,9740
2019-05-25T14:53:39.723Z,10104
2019-05-25T14:54:39.716Z,10884
2019-05-25T14:55:39.488Z,11092
2019-05-25T14:56:39.721Z,11116
2019-05-25T14:57:39.734Z,11496
2019-05-25T14:58:39.869Z,12056
2019-05-25T14:59:39.710Z,12648
2019-05-25T15:00:39.711Z,13340
2019-05-25T15:01:39.717Z,13544
2019-05-25T15:02:39.457Z,13472
2019-05-25T15:03:39.704Z,13856
2019-05-25T15:04:39.699Z,14264
2019-05-25T15:05:39.707Z,14364
2019-05-25T15:06:39.718Z,14936
2019-05-25T15:07:39.462Z,15556
2019-05-25T15:08:39.698Z,15024
2019-05-25T15:09:39.695Z,14628
2019-05-25T15:10:39.727Z,14868
2019-05-25T15:11:39.721Z,14520
2019-05-25T15:12:39.455Z,13432
2019-05-25T15:13:39.713Z,12224
2019-05-25T15:14:39.697Z,11504
2019-05-25T15:15:39.690Z,11396
2019-05-25T15:16:39.872Z,11980
2019-05-25T15:17:45.132Z,12128
2019-05-25T15:18:39.687Z,12596
2019-05-25T15:19:39.680Z,13040
2019-05-25T15:20:39.684Z,13292
2019-05-25T15:21:40.039Z,13316
2019-05-25T15:22:39.683Z,13412
2019-05-25T15:23:39.686Z,13552
2019-05-25T15:24:39.434Z,13976
2019-05-25T15:25:39.673Z,13932
2019-05-25T15:26:39.682Z,13332
2019-05-25T15:27:39.190Z,12708
2019-05-25T15:28:39.683Z,13168
2019-05-25T15:29:39.432Z,13928
2019-05-25T15:30:39.676Z,13516
2019-05-25T15:31:39.676Z,13404
2019-05-25T15:32:39.666Z,13160
2019-05-25T15:33:39.712Z,13588
2019-05-25T15:34:39.675Z,13156
2019-05-25T15:35:39.682Z,13212
2019-05-25T15:36:39.662Z,13972
2019-05-25T15:37:39.419Z,14372
2019-05-25T15:38:39.678Z,14120
2019-05-25T15:39:39.660Z,12832
2019-05-25T15:40:41.533Z,11552
2019-05-25T15:41:39.657Z,11948
2019-05-25T15:42:39.415Z,12204
2019-05-25T15:43:39.657Z,12408
2019-05-25T15:44:39.664Z,12192
2019-05-25T15:45:39.664Z,11876
2019-05-25T15:46:39.682Z,12224
2019-05-25T15:47:39.513Z,12584
2019-05-25T15:48:39.658Z,12404
2019-05-25T15:49:40.900Z,12056
2019-05-25T15:50:39.650Z,12072
2019-05-25T15:51:39.647Z,12468
2019-05-25T15:52:39.675Z,12560
2019-05-25T15:53:39.647Z,12840
2019-05-25T15:54:39.651Z,12556
2019-05-25T15:55:39.632Z,12480
2019-05-25T15:56:39.392Z,12536
2019-05-25T15:57:39.396Z,12380
2019-05-25T15:58:39.638Z,12004
2019-05-25T15:59:39.664Z,12036
2019-05-25T16:00:42.188Z,12172
2019-05-25T16:01:39.387Z,12052
2019-05-25T16:02:43.417Z,10900
2019-05-25T16:03:39.626Z,10460
2019-05-25T16:04:40.541Z,10528
2019-05-25T16:05:39.632Z,11068
2019-05-25T16:06:39.616Z,11144
2019-05-25T16:07:39.377Z,11004
2019-05-25T16:08:39.618Z,10512
2019-05-25T16:09:39.621Z,9764
2019-05-25T16:10:39.618Z,9300
2019-05-25T16:11:39.620Z,9328
2019-05-25T16:12:39.616Z,10192
2019-05-25T16:13:39.639Z,10560
2019-05-25T16:14:39.615Z,10348
2019-05-25T16:15:39.613Z,10060
2019-05-25T16:16:39.610Z,9892
2019-05-25T16:17:39.600Z,10276
2019-05-25T16:18:39.634Z,9984
2019-05-25T16:19:39.600Z,9620
2019-05-25T16:20:39.600Z,9272
2019-05-25T16:21:39.597Z,9548
2019-05-25T16:22:39.105Z,10032
2019-05-25T16:23:39.593Z,10356
2019-05-25T16:24:39.605Z,9732
2019-05-25T16:25:39.584Z,9192
2019-05-25T16:26:52.525Z,8860
2019-05-25T16:27:39.578Z,8136
2019-05-25T16:28:39.583Z,7320
2019-05-25T16:29:39.580Z,6504
2019-05-25T16:30:39.602Z,6144
2019-05-25T16:31:41.050Z,6252
2019-05-25T16:33:13.887Z,7224
2019-05-25T16:33:39.580Z,7432
2019-05-25T16:34:39.678Z,7716
2019-05-25T16:35:39.322Z,7472
2019-05-25T16:36:39.563Z,7312
2019-05-25T16:37:40.932Z,7084
2019-05-25T16:38:39.604Z,7364
2019-05-25T16:39:39.554Z,8104
2019-05-25T16:40:39.619Z,8384
2019-05-25T16:41:39.554Z,8596
2019-05-25T16:42:39.313Z,8572
2019-05-25T16:43:39.548Z,8432
2019-05-25T16:44:39.588Z,8084
2019-05-25T16:45:39.544Z,7676
2019-05-25T16:46:39.542Z,7492
2019-05-25T16:47:38.806Z,7404
2019-05-25T16:48:39.544Z,7132
2019-05-25T16:49:39.533Z,6988
2019-05-25T16:50:39.534Z,6884
2019-05-25T16:51:39.534Z,6800
2019-05-25T16:52:39.048Z,6708
2019-05-25T16:53:39.519Z,6472
2019-05-25T16:54:39.519Z,6248
2019-05-25T16:55:39.518Z,6044
2019-05-25T16:56:39.535Z,5844
2019-05-25T16:57:39.524Z,5528
2019-05-25T16:58:39.513Z,5232
2019-05-25T16:59:39.505Z,5060
2019-05-25T17:00:39.582Z,5084
2019-05-25T17:01:54.608Z,5100
2019-05-25T17:02:39.506Z,5164
2019-05-25T17:03:39.502Z,5236
2019-05-25T17:04:39.518Z,5148
2019-05-25T17:05:39.480Z,5016
2019-05-25T17:06:39.482Z,4952
2019-05-25T17:07:38.996Z,4988
2019-05-25T17:08:39.477Z,5060
2019-05-25T17:09:39.477Z,5216
2019-05-25T17:10:39.471Z,5404
2019-05-25T17:11:39.475Z,5476
2019-05-25T17:12:39.220Z,5532
2019-05-25T17:13:39.463Z,5584
2019-05-25T17:14:39.458Z,5580
2019-05-25T17:15:39.457Z,5704
2019-05-25T17:16:39.450Z,5736
2019-05-25T17:17:39.448Z,5744
2019-05-25T17:18:39.444Z,5732
2019-05-25T17:19:39.454Z,5752
2019-05-25T17:20:39.438Z,5908
2019-05-25T17:21:39.451Z,5908
2019-05-25T17:22:39.192Z,5844
2019-05-25T17:23:39.433Z,5832
2019-05-25T17:24:39.419Z,5816
2019-05-25T17:25:39.428Z,5708
2019-05-25T17:26:39.420Z,5672
2019-05-25T17:27:39.419Z,5516
2019-05-25T17:28:39.413Z,5432
2019-05-25T17:29:39.411Z,5304
2019-05-25T17:30:39.399Z,5104
2019-05-25T17:31:39.398Z,5004
2019-05-25T17:32:39.157Z,4960
2019-05-25T17:33:53.014Z,4956
2019-05-25T17:34:39.382Z,4960
2019-05-25T17:35:39.410Z,4972
2019-05-25T17:36:39.384Z,4856
2019-05-25T17:37:39.379Z,4776
2019-05-25T17:38:39.372Z,4660
2019-05-25T17:39:39.375Z,4556
2019-05-25T17:40:39.363Z,4404
2019-05-25T17:41:39.359Z,4284
2019-05-25T17:42:39.122Z,4144
2019-05-25T17:43:39.413Z,3932
2019-05-25T17:44:39.350Z,3712
2019-05-25T17:45:39.357Z,3680
2019-05-25T17:46:39.360Z,3672
2019-05-25T17:47:39.368Z,3668
2019-05-25T17:48:39.364Z,3692
2019-05-25T17:49:39.341Z,3560